Terminal Aerodrome Forecast
Issued by NWS New Orleans/Baton Rouge, LA

Home | Current Version | Previous Version | Text Only | Print | Product List | Glossary On
Versions: 1 2 3 4 5 6 7 8 9 10 11 12 13 14 15 16
000
FTUS44 KLIX 190152 AAA
TAFNEW
TAF AMD
KNEW 190152Z 1902/1924 15006KT P6SM OVC014
     FM190300 16006KT 3SM BR VCSH OVC008
     FM190600 16008KT 1SM BR VCSH OVC004
     FM191600 18012KT 3SM BR VCTS OVC015CB
     FM192000 22012KT 6SM -SHRA VCTS OVC035CB=

USA.gov is the U.S. government's official web portal to all federal, state and local government web resources and services.